sensor_id;sensor_type;location;lat;lon;timestamp;P1;durP1;ratioP1;P2;durP2;ratioP2
11535;SDS011;5824;49.336;8.652;2023-07-30T00:01:47;7.50;;;5.80;;
11535;SDS011;5824;49.336;8.652;2023-07-30T00:04:13;10.43;;;6.67;;
11535;SDS011;5824;49.336;8.652;2023-07-30T00:06:38;7.43;;;5.90;;
11535;SDS011;5824;49.336;8.652;2023-07-30T00:09:04;9.00;;;6.13;;
11535;SDS011;5824;49.336;8.652;2023-07-30T00:11:29;10.53;;;6.60;;
11535;SDS011;5824;49.336;8.652;2023-07-30T00:13:55;8.73;;;6.50;;
11535;SDS011;5824;49.336;8.652;2023-07-30T00:16:20;10.47;;;6.20;;
11535;SDS011;5824;49.336;8.652;2023-07-30T00:18:46;11.80;;;6.27;;
11535;SDS011;5824;49.336;8.652;2023-07-30T00:21:11;9.37;;;6.00;;
11535;SDS011;5824;49.336;8.652;2023-07-30T00:23:37;7.97;;;6.40;;
11535;SDS011;5824;49.336;8.652;2023-07-30T00:26:02;11.20;;;6.83;;
11535;SDS011;5824;49.336;8.652;2023-07-30T00:28:28;9.80;;;6.40;;
11535;SDS011;5824;49.336;8.652;2023-07-30T00:30:53;12.67;;;8.00;;
11535;SDS011;5824;49.336;8.652;2023-07-30T00:33:19;12.70;;;5.80;;
11535;SDS011;5824;49.336;8.652;2023-07-30T00:35:44;8.40;;;6.60;;
11535;SDS011;5824;49.336;8.652;2023-07-30T00:38:09;9.20;;;6.00;;
11535;SDS011;5824;49.336;8.652;2023-07-30T00:40:41;8.20;;;5.70;;
11535;SDS011;5824;49.336;8.652;2023-07-30T00:43:07;9.67;;;5.80;;
11535;SDS011;5824;49.336;8.652;2023-07-30T00:45:32;8.83;;;6.00;;
11535;SDS011;5824;49.336;8.652;2023-07-30T00:47:59;7.67;;;6.23;;
11535;SDS011;5824;49.336;8.652;2023-07-30T00:50:25;7.90;;;5.80;;
11535;SDS011;5824;49.336;8.652;2023-07-30T00:52:50;8.67;;;5.90;;
11535;SDS011;5824;49.336;8.652;2023-07-30T00:55:16;9.47;;;4.53;;
11535;SDS011;5824;49.336;8.652;2023-07-30T00:57:42;5.60;;;4.27;;
11535;SDS011;5824;49.336;8.652;2023-07-30T01:00:08;5.40;;;3.80;;
11535;SDS011;5824;49.336;8.652;2023-07-30T01:02:37;9.57;;;4.43;;
11535;SDS011;5824;49.336;8.652;2023-07-30T01:05:03;5.10;;;4.13;;
11535;SDS011;5824;49.336;8.652;2023-07-30T01:07:29;8.33;;;4.43;;
11535;SDS011;5824;49.336;8.652;2023-07-30T01:09:57;8.43;;;4.60;;
11535;SDS011;5824;49.336;8.652;2023-07-30T01:12:25;5.87;;;4.63;;
11535;SDS011;5824;49.336;8.652;2023-07-30T01:14:51;10.70;;;4.97;;
11535;SDS011;5824;49.336;8.652;2023-07-30T01:17:19;7.67;;;4.50;;
11535;SDS011;5824;49.336;8.652;2023-07-30T01:19:45;6.47;;;4.03;;
11535;SDS011;5824;49.336;8.652;2023-07-30T01:22:10;5.70;;;3.97;;
11535;SDS011;5824;49.336;8.652;2023-07-30T01:24:36;5.03;;;3.93;;
11535;SDS011;5824;49.336;8.652;2023-07-30T01:27:02;6.10;;;4.50;;
11535;SDS011;5824;49.336;8.652;2023-07-30T01:29:33;6.17;;;3.70;;
11535;SDS011;5824;49.336;8.652;2023-07-30T01:32:04;5.10;;;3.43;;
11535;SDS011;5824;49.336;8.652;2023-07-30T01:34:32;8.83;;;3.70;;
11535;SDS011;5824;49.336;8.652;2023-07-30T01:37:00;4.60;;;3.13;;
11535;SDS011;5824;49.336;8.652;2023-07-30T01:39:27;5.43;;;3.37;;
11535;SDS011;5824;49.336;8.652;2023-07-30T01:41:53;7.53;;;3.70;;
11535;SDS011;5824;49.336;8.652;2023-07-30T01:44:19;5.17;;;3.57;;
11535;SDS011;5824;49.336;8.652;2023-07-30T01:46:45;6.90;;;4.00;;
11535;SDS011;5824;49.336;8.652;2023-07-30T01:49:11;4.90;;;3.50;;
11535;SDS011;5824;49.336;8.652;2023-07-30T01:51:36;4.77;;;3.27;;
11535;SDS011;5824;49.336;8.652;2023-07-30T01:54:02;5.90;;;3.60;;
11535;SDS011;5824;49.336;8.652;2023-07-30T01:56:27;5.17;;;3.47;;
11535;SDS011;5824;49.336;8.652;2023-07-30T01:58:53;5.13;;;3.30;;
11535;SDS011;5824;49.336;8.652;2023-07-30T02:01:19;5.37;;;3.37;;
11535;SDS011;5824;49.336;8.652;2023-07-30T02:03:44;4.70;;;3.10;;
11535;SDS011;5824;49.336;8.652;2023-07-30T02:06:10;5.83;;;3.50;;
11535;SDS011;5824;49.336;8.652;2023-07-30T02:08:36;6.47;;;2.93;;
11535;SDS011;5824;49.336;8.652;2023-07-30T02:11:02;5.90;;;3.40;;
11535;SDS011;5824;49.336;8.652;2023-07-30T02:13:27;5.50;;;3.20;;
11535;SDS011;5824;49.336;8.652;2023-07-30T02:15:53;6.53;;;3.23;;
11535;SDS011;5824;49.336;8.652;2023-07-30T02:18:18;7.40;;;3.80;;
11535;SDS011;5824;49.336;8.652;2023-07-30T02:20:44;5.40;;;3.30;;
11535;SDS011;5824;49.336;8.652;2023-07-30T02:23:10;4.90;;;3.20;;
11535;SDS011;5824;49.336;8.652;2023-07-30T02:25:35;5.60;;;3.47;;
11535;SDS011;5824;49.336;8.652;2023-07-30T02:28:02;9.13;;;3.37;;
11535;SDS011;5824;49.336;8.652;2023-07-30T02:30:27;6.33;;;3.33;;
11535;SDS011;5824;49.336;8.652;2023-07-30T02:32:53;5.80;;;3.40;;
11535;SDS011;5824;49.336;8.652;2023-07-30T02:35:19;5.30;;;3.57;;
11535;SDS011;5824;49.336;8.652;2023-07-30T02:37:44;5.40;;;3.30;;
11535;SDS011;5824;49.336;8.652;2023-07-30T02:40:10;5.97;;;3.37;;
11535;SDS011;5824;49.336;8.652;2023-07-30T02:42:36;7.10;;;3.43;;
11535;SDS011;5824;49.336;8.652;2023-07-30T02:45:01;6.83;;;3.80;;
11535;SDS011;5824;49.336;8.652;2023-07-30T02:47:28;9.13;;;3.57;;
11535;SDS011;5824;49.336;8.652;2023-07-30T02:49:53;4.97;;;3.50;;
11535;SDS011;5824;49.336;8.652;2023-07-30T02:52:18;5.00;;;3.40;;
11535;SDS011;5824;49.336;8.652;2023-07-30T02:54:44;5.90;;;3.70;;
11535;SDS011;5824;49.336;8.652;2023-07-30T02:57:10;5.93;;;3.73;;
11535;SDS011;5824;49.336;8.652;2023-07-30T02:59:36;6.60;;;4.10;;
11535;SDS011;5824;49.336;8.652;2023-07-30T03:02:02;7.97;;;3.90;;
11535;SDS011;5824;49.336;8.652;2023-07-30T03:04:30;6.40;;;3.40;;
11535;SDS011;5824;49.336;8.652;2023-07-30T03:06:55;8.17;;;3.37;;
11535;SDS011;5824;49.336;8.652;2023-07-30T03:09:21;6.90;;;4.17;;
11535;SDS011;5824;49.336;8.652;2023-07-30T03:11:47;6.27;;;3.50;;
11535;SDS011;5824;49.336;8.652;2023-07-30T03:14:13;5.57;;;3.10;;
11535;SDS011;5824;49.336;8.652;2023-07-30T03:16:40;5.57;;;3.60;;
11535;SDS011;5824;49.336;8.652;2023-07-30T03:19:06;7.23;;;3.80;;
11535;SDS011;5824;49.336;8.652;2023-07-30T03:21:31;4.10;;;3.43;;
11535;SDS011;5824;49.336;8.652;2023-07-30T03:23:57;6.77;;;3.60;;
11535;SDS011;5824;49.336;8.652;2023-07-30T03:26:22;7.00;;;3.60;;
11535;SDS011;5824;49.336;8.652;2023-07-30T03:28:48;5.20;;;4.10;;
11535;SDS011;5824;49.336;8.652;2023-07-30T03:31:13;9.43;;;4.70;;
11535;SDS011;5824;49.336;8.652;2023-07-30T03:33:39;5.27;;;4.40;;
11535;SDS011;5824;49.336;8.652;2023-07-30T03:36:08;9.13;;;4.40;;
11535;SDS011;5824;49.336;8.652;2023-07-30T03:38:34;10.03;;;3.97;;
11535;SDS011;5824;49.336;8.652;2023-07-30T03:41:00;7.87;;;4.73;;
11535;SDS011;5824;49.336;8.652;2023-07-30T03:43:25;6.87;;;4.67;;
11535;SDS011;5824;49.336;8.652;2023-07-30T03:45:51;8.33;;;5.00;;
11535;SDS011;5824;49.336;8.652;2023-07-30T03:48:16;5.83;;;4.40;;
11535;SDS011;5824;49.336;8.652;2023-07-30T03:50:42;9.80;;;4.87;;
11535;SDS011;5824;49.336;8.652;2023-07-30T03:53:07;6.23;;;4.83;;
11535;SDS011;5824;49.336;8.652;2023-07-30T03:55:33;8.70;;;4.43;;
11535;SDS011;5824;49.336;8.652;2023-07-30T03:57:58;11.10;;;4.83;;
11535;SDS011;5824;49.336;8.652;2023-07-30T04:00:24;6.20;;;4.80;;
11535;SDS011;5824;49.336;8.652;2023-07-30T04:02:49;8.20;;;4.77;;
11535;SDS011;5824;49.336;8.652;2023-07-30T04:05:15;9.07;;;5.00;;
11535;SDS011;5824;49.336;8.652;2023-07-30T04:07:40;9.90;;;5.03;;
11535;SDS011;5824;49.336;8.652;2023-07-30T04:10:06;7.00;;;5.20;;
11535;SDS011;5824;49.336;8.652;2023-07-30T04:12:31;6.10;;;4.90;;
11535;SDS011;5824;49.336;8.652;2023-07-30T04:14:57;12.63;;;5.27;;
11535;SDS011;5824;49.336;8.652;2023-07-30T04:17:22;11.13;;;5.60;;
11535;SDS011;5824;49.336;8.652;2023-07-30T04:19:48;7.07;;;5.40;;
11535;SDS011;5824;49.336;8.652;2023-07-30T04:22:13;8.30;;;4.80;;
11535;SDS011;5824;49.336;8.652;2023-07-30T04:24:39;8.17;;;5.20;;
11535;SDS011;5824;49.336;8.652;2023-07-30T04:27:05;7.93;;;5.10;;
11535;SDS011;5824;49.336;8.652;2023-07-30T04:29:30;8.33;;;5.13;;
11535;SDS011;5824;49.336;8.652;2023-07-30T04:31:56;6.80;;;5.17;;
11535;SDS011;5824;49.336;8.652;2023-07-30T04:34:21;8.43;;;5.27;;
11535;SDS011;5824;49.336;8.652;2023-07-30T04:36:47;8.43;;;5.47;;
11535;SDS011;5824;49.336;8.652;2023-07-30T04:39:12;24.53;;;5.60;;
11535;SDS011;5824;49.336;8.652;2023-07-30T04:41:38;9.00;;;5.03;;
11535;SDS011;5824;49.336;8.652;2023-07-30T04:44:03;8.80;;;5.07;;
11535;SDS011;5824;49.336;8.652;2023-07-30T04:46:29;10.60;;;5.73;;
11535;SDS011;5824;49.336;8.652;2023-07-30T04:48:55;13.10;;;6.60;;
11535;SDS011;5824;49.336;8.652;2023-07-30T04:51:21;13.80;;;5.97;;
11535;SDS011;5824;49.336;8.652;2023-07-30T04:53:46;13.13;;;5.77;;
11535;SDS011;5824;49.336;8.652;2023-07-30T04:56:12;7.10;;;5.40;;
11535;SDS011;5824;49.336;8.652;2023-07-30T04:58:37;7.87;;;5.70;;
11535;SDS011;5824;49.336;8.652;2023-07-30T05:01:03;8.30;;;6.13;;
11535;SDS011;5824;49.336;8.652;2023-07-30T05:03:28;9.50;;;6.40;;
11535;SDS011;5824;49.336;8.652;2023-07-30T05:05:54;10.93;;;6.80;;
11535;SDS011;5824;49.336;8.652;2023-07-30T05:08:19;12.80;;;6.67;;
11535;SDS011;5824;49.336;8.652;2023-07-30T05:10:45;8.07;;;6.07;;
11535;SDS011;5824;49.336;8.652;2023-07-30T05:13:10;9.70;;;6.47;;
11535;SDS011;5824;49.336;8.652;2023-07-30T05:15:37;11.47;;;6.60;;
11535;SDS011;5824;49.336;8.652;2023-07-30T05:18:03;9.67;;;6.23;;
11535;SDS011;5824;49.336;8.652;2023-07-30T05:20:29;8.33;;;6.17;;
11535;SDS011;5824;49.336;8.652;2023-07-30T05:22:54;10.20;;;6.30;;
11535;SDS011;5824;49.336;8.652;2023-07-30T05:25:20;9.47;;;6.50;;
11535;SDS011;5824;49.336;8.652;2023-07-30T05:27:45;13.83;;;6.63;;
11535;SDS011;5824;49.336;8.652;2023-07-30T05:30:11;8.93;;;6.37;;
11535;SDS011;5824;49.336;8.652;2023-07-30T05:32:36;12.53;;;6.80;;
11535;SDS011;5824;49.336;8.652;2023-07-30T05:35:02;10.70;;;6.80;;
11535;SDS011;5824;49.336;8.652;2023-07-30T05:37:27;10.87;;;7.40;;
11535;SDS011;5824;49.336;8.652;2023-07-30T05:39:53;11.33;;;7.63;;
11535;SDS011;5824;49.336;8.652;2023-07-30T05:42:18;12.37;;;8.60;;
11535;SDS011;5824;49.336;8.652;2023-07-30T05:44:44;11.93;;;8.80;;
11535;SDS011;5824;49.336;8.652;2023-07-30T05:47:09;10.77;;;8.40;;
11535;SDS011;5824;49.336;8.652;2023-07-30T05:49:35;10.73;;;7.60;;
11535;SDS011;5824;49.336;8.652;2023-07-30T05:52:00;12.60;;;8.20;;
11535;SDS011;5824;49.336;8.652;2023-07-30T05:54:26;12.30;;;7.97;;
11535;SDS011;5824;49.336;8.652;2023-07-30T05:56:52;12.00;;;7.80;;
11535;SDS011;5824;49.336;8.652;2023-07-30T05:59:18;9.77;;;7.00;;
11535;SDS011;5824;49.336;8.652;2023-07-30T06:01:44;14.00;;;8.00;;
11535;SDS011;5824;49.336;8.652;2023-07-30T06:04:10;10.07;;;6.73;;
11535;SDS011;5824;49.336;8.652;2023-07-30T06:06:35;10.03;;;7.37;;
11535;SDS011;5824;49.336;8.652;2023-07-30T06:09:01;10.27;;;6.40;;
11535;SDS011;5824;49.336;8.652;2023-07-30T06:11:26;8.50;;;7.10;;
11535;SDS011;5824;49.336;8.652;2023-07-30T06:13:52;8.93;;;6.87;;
11535;SDS011;5824;49.336;8.652;2023-07-30T06:16:18;11.37;;;6.37;;
11535;SDS011;5824;49.336;8.652;2023-07-30T06:18:45;8.17;;;6.20;;
11535;SDS011;5824;49.336;8.652;2023-07-30T06:21:11;6.93;;;5.97;;
11535;SDS011;5824;49.336;8.652;2023-07-30T06:23:36;7.33;;;5.10;;
11535;SDS011;5824;49.336;8.652;2023-07-30T06:26:02;7.50;;;5.53;;
11535;SDS011;5824;49.336;8.652;2023-07-30T06:28:27;12.80;;;5.23;;
11535;SDS011;5824;49.336;8.652;2023-07-30T06:30:53;6.67;;;5.40;;
11535;SDS011;5824;49.336;8.652;2023-07-30T06:33:18;7.20;;;5.90;;
11535;SDS011;5824;49.336;8.652;2023-07-30T06:35:44;6.83;;;5.20;;
11535;SDS011;5824;49.336;8.652;2023-07-30T06:38:10;7.20;;;5.50;;
11535;SDS011;5824;49.336;8.652;2023-07-30T06:40:35;8.80;;;5.40;;
11535;SDS011;5824;49.336;8.652;2023-07-30T06:43:01;6.53;;;5.50;;
11535;SDS011;5824;49.336;8.652;2023-07-30T06:45:26;8.97;;;5.53;;
11535;SDS011;5824;49.336;8.652;2023-07-30T06:47:52;10.20;;;5.70;;
11535;SDS011;5824;49.336;8.652;2023-07-30T06:50:18;7.50;;;5.90;;
11535;SDS011;5824;49.336;8.652;2023-07-30T06:52:44;6.43;;;5.80;;
11535;SDS011;5824;49.336;8.652;2023-07-30T06:55:09;7.33;;;5.23;;
11535;SDS011;5824;49.336;8.652;2023-07-30T06:57:35;7.83;;;4.73;;
11535;SDS011;5824;49.336;8.652;2023-07-30T07:00:01;8.73;;;5.13;;
11535;SDS011;5824;49.336;8.652;2023-07-30T07:02:28;6.03;;;4.50;;
11535;SDS011;5824;49.336;8.652;2023-07-30T07:04:53;6.67;;;4.30;;
11535;SDS011;5824;49.336;8.652;2023-07-30T07:07:19;7.60;;;4.97;;
11535;SDS011;5824;49.336;8.652;2023-07-30T07:09:45;6.27;;;4.23;;
11535;SDS011;5824;49.336;8.652;2023-07-30T07:12:11;5.53;;;4.23;;
11535;SDS011;5824;49.336;8.652;2023-07-30T07:14:36;13.63;;;4.80;;
11535;SDS011;5824;49.336;8.652;2023-07-30T07:17:02;6.10;;;4.03;;
11535;SDS011;5824;49.336;8.652;2023-07-30T07:19:28;7.30;;;4.50;;
11535;SDS011;5824;49.336;8.652;2023-07-30T07:21:53;7.43;;;4.77;;
11535;SDS011;5824;49.336;8.652;2023-07-30T07:24:19;6.10;;;4.50;;
11535;SDS011;5824;49.336;8.652;2023-07-30T07:26:45;8.93;;;4.83;;
11535;SDS011;5824;49.336;8.652;2023-07-30T07:29:10;11.03;;;5.00;;
11535;SDS011;5824;49.336;8.652;2023-07-30T07:31:36;6.20;;;4.73;;
11535;SDS011;5824;49.336;8.652;2023-07-30T07:34:01;7.90;;;4.90;;
11535;SDS011;5824;49.336;8.652;2023-07-30T07:36:27;10.00;;;5.07;;
11535;SDS011;5824;49.336;8.652;2023-07-30T07:38:52;8.00;;;5.30;;
11535;SDS011;5824;49.336;8.652;2023-07-30T07:41:18;6.17;;;4.20;;
11535;SDS011;5824;49.336;8.652;2023-07-30T07:43:44;5.50;;;4.90;;
11535;SDS011;5824;49.336;8.652;2023-07-30T07:46:11;5.63;;;4.77;;
11535;SDS011;5824;49.336;8.652;2023-07-30T07:48:42;6.37;;;4.80;;
11535;SDS011;5824;49.336;8.652;2023-07-30T07:51:08;5.88;;;4.28;;
11535;SDS011;5824;49.336;8.652;2023-07-30T07:53:35;6.03;;;4.03;;
11535;SDS011;5824;49.336;8.652;2023-07-30T07:56:02;6.60;;;4.17;;
11535;SDS011;5824;49.336;8.652;2023-07-30T07:58:28;4.40;;;3.63;;
11535;SDS011;5824;49.336;8.652;2023-07-30T08:00:54;4.67;;;4.00;;
11535;SDS011;5824;49.336;8.652;2023-07-30T08:03:20;4.70;;;3.73;;
11535;SDS011;5824;49.336;8.652;2023-07-30T08:05:46;4.73;;;3.90;;
11535;SDS011;5824;49.336;8.652;2023-07-30T08:08:12;7.00;;;4.40;;
11535;SDS011;5824;49.336;8.652;2023-07-30T08:10:38;8.20;;;3.93;;
11535;SDS011;5824;49.336;8.652;2023-07-30T08:13:04;5.13;;;3.37;;
11535;SDS011;5824;49.336;8.652;2023-07-30T08:15:30;5.53;;;3.70;;
11535;SDS011;5824;49.336;8.652;2023-07-30T08:17:55;4.83;;;3.23;;
11535;SDS011;5824;49.336;8.652;2023-07-30T08:20:21;9.63;;;3.80;;
11535;SDS011;5824;49.336;8.652;2023-07-30T08:22:46;4.70;;;3.70;;
11535;SDS011;5824;49.336;8.652;2023-07-30T08:25:12;4.67;;;3.47;;
11535;SDS011;5824;49.336;8.652;2023-07-30T08:27:37;5.90;;;3.83;;
11535;SDS011;5824;49.336;8.652;2023-07-30T08:30:03;6.27;;;3.73;;
11535;SDS011;5824;49.336;8.652;2023-07-30T08:32:29;5.90;;;3.80;;
11535;SDS011;5824;49.336;8.652;2023-07-30T08:34:54;5.33;;;3.40;;
11535;SDS011;5824;49.336;8.652;2023-07-30T08:37:20;6.10;;;3.70;;
11535;SDS011;5824;49.336;8.652;2023-07-30T08:39:45;9.53;;;3.60;;
11535;SDS011;5824;49.336;8.652;2023-07-30T08:42:11;8.70;;;3.60;;
11535;SDS011;5824;49.336;8.652;2023-07-30T08:44:36;5.23;;;3.30;;
11535;SDS011;5824;49.336;8.652;2023-07-30T08:47:02;7.90;;;3.47;;
11535;SDS011;5824;49.336;8.652;2023-07-30T08:49:27;6.60;;;3.30;;
11535;SDS011;5824;49.336;8.652;2023-07-30T08:51:57;11.43;;;3.13;;
11535;SDS011;5824;49.336;8.652;2023-07-30T08:54:24;4.60;;;2.93;;
11535;SDS011;5824;49.336;8.652;2023-07-30T08:56:53;7.30;;;3.50;;
11535;SDS011;5824;49.336;8.652;2023-07-30T08:59:19;5.20;;;3.10;;
11535;SDS011;5824;49.336;8.652;2023-07-30T09:01:46;4.90;;;3.20;;
11535;SDS011;5824;49.336;8.652;2023-07-30T09:04:14;5.37;;;2.47;;
11535;SDS011;5824;49.336;8.652;2023-07-30T09:06:42;6.03;;;2.80;;
11535;SDS011;5824;49.336;8.652;2023-07-30T09:09:09;4.80;;;3.53;;
11535;SDS011;5824;49.336;8.652;2023-07-30T09:11:35;3.70;;;2.60;;
11535;SDS011;5824;49.336;8.652;2023-07-30T09:14:01;7.50;;;2.80;;
11535;SDS011;5824;49.336;8.652;2023-07-30T09:16:27;7.03;;;2.53;;
11535;SDS011;5824;49.336;8.652;2023-07-30T09:18:53;4.63;;;2.70;;
11535;SDS011;5824;49.336;8.652;2023-07-30T09:21:19;3.40;;;2.40;;
11535;SDS011;5824;49.336;8.652;2023-07-30T09:23:53;4.43;;;2.57;;
11535;SDS011;5824;49.336;8.652;2023-07-30T09:26:19;5.47;;;2.80;;
11535;SDS011;5824;49.336;8.652;2023-07-30T09:28:44;4.60;;;2.70;;
11535;SDS011;5824;49.336;8.652;2023-07-30T09:31:10;6.70;;;3.00;;
11535;SDS011;5824;49.336;8.652;2023-07-30T09:33:39;5.50;;;3.00;;
11535;SDS011;5824;49.336;8.652;2023-07-30T09:36:06;4.07;;;2.90;;
11535;SDS011;5824;49.336;8.652;2023-07-30T09:38:38;5.40;;;2.70;;
11535;SDS011;5824;49.336;8.652;2023-07-30T09:41:04;5.33;;;2.53;;
11535;SDS011;5824;49.336;8.652;2023-07-30T09:43:33;4.40;;;3.00;;
11535;SDS011;5824;49.336;8.652;2023-07-30T09:46:03;6.07;;;2.90;;
11535;SDS011;5824;49.336;8.652;2023-07-30T09:48:29;4.70;;;2.63;;
11535;SDS011;5824;49.336;8.652;2023-07-30T09:50:59;6.00;;;2.60;;
11535;SDS011;5824;49.336;8.652;2023-07-30T09:53:32;9.03;;;2.73;;
11535;SDS011;5824;49.336;8.652;2023-07-30T09:55:59;4.17;;;2.67;;
11535;SDS011;5824;49.336;8.652;2023-07-30T09:58:26;4.43;;;2.80;;
11535;SDS011;5824;49.336;8.652;2023-07-30T10:00:52;4.00;;;2.90;;
11535;SDS011;5824;49.336;8.652;2023-07-30T10:03:18;7.43;;;2.80;;
11535;SDS011;5824;49.336;8.652;2023-07-30T10:05:44;4.40;;;2.43;;
11535;SDS011;5824;49.336;8.652;2023-07-30T10:08:12;4.10;;;2.90;;
11535;SDS011;5824;49.336;8.652;2023-07-30T10:10:45;4.43;;;2.73;;
11535;SDS011;5824;49.336;8.652;2023-07-30T10:13:12;4.50;;;2.70;;
11535;SDS011;5824;49.336;8.652;2023-07-30T10:15:39;4.93;;;2.70;;
11535;SDS011;5824;49.336;8.652;2023-07-30T10:18:05;4.10;;;2.70;;
11535;SDS011;5824;49.336;8.652;2023-07-30T10:20:30;7.30;;;3.07;;
11535;SDS011;5824;49.336;8.652;2023-07-30T10:22:57;4.60;;;3.47;;
11535;SDS011;5824;49.336;8.652;2023-07-30T10:28:22;3.10;;;1.93;;
11535;SDS011;5824;49.336;8.652;2023-07-30T10:31:05;3.97;;;2.43;;
11535;SDS011;5824;49.336;8.652;2023-07-30T10:33:50;4.03;;;2.10;;
11535;SDS011;5824;49.336;8.652;2023-07-30T10:36:35;3.90;;;2.50;;
11535;SDS011;5824;49.336;8.652;2023-07-30T10:39:11;7.00;;;2.47;;
11535;SDS011;5824;49.336;8.652;2023-07-30T10:41:38;3.20;;;2.22;;
11535;SDS011;5824;49.336;8.652;2023-07-30T10:44:03;3.67;;;2.17;;
11535;SDS011;5824;49.336;8.652;2023-07-30T10:46:29;4.22;;;2.08;;
11535;SDS011;5824;49.336;8.652;2023-07-30T10:48:55;3.67;;;1.80;;
11535;SDS011;5824;49.336;8.652;2023-07-30T10:51:20;3.95;;;1.95;;
11535;SDS011;5824;49.336;8.652;2023-07-30T10:53:46;3.23;;;2.00;;
11535;SDS011;5824;49.336;8.652;2023-07-30T10:56:13;4.50;;;2.20;;
11535;SDS011;5824;49.336;8.652;2023-07-30T10:58:41;4.43;;;1.80;;
11535;SDS011;5824;49.336;8.652;2023-07-30T11:01:08;3.50;;;1.97;;
11535;SDS011;5824;49.336;8.652;2023-07-30T11:03:34;9.30;;;2.13;;
11535;SDS011;5824;49.336;8.652;2023-07-30T11:06:01;4.73;;;1.80;;
11535;SDS011;5824;49.336;8.652;2023-07-30T11:11:07;3.70;;;1.83;;
11535;SDS011;5824;49.336;8.652;2023-07-30T11:13:38;3.07;;;2.20;;
11535;SDS011;5824;49.336;8.652;2023-07-30T11:16:06;4.07;;;2.43;;
11535;SDS011;5824;49.336;8.652;2023-07-30T11:18:32;4.47;;;2.37;;
11535;SDS011;5824;49.336;8.652;2023-07-30T11:21:09;2.80;;;2.00;;
11535;SDS011;5824;49.336;8.652;2023-07-30T11:23:36;4.30;;;2.10;;
11535;SDS011;5824;49.336;8.652;2023-07-30T11:26:03;4.83;;;2.33;;
11535;SDS011;5824;49.336;8.652;2023-07-30T11:28:30;6.10;;;2.27;;
11535;SDS011;5824;49.336;8.652;2023-07-30T11:30:58;3.10;;;1.83;;
11535;SDS011;5824;49.336;8.652;2023-07-30T11:33:26;4.57;;;2.13;;
11535;SDS011;5824;49.336;8.652;2023-07-30T11:35:53;4.27;;;2.30;;
11535;SDS011;5824;49.336;8.652;2023-07-30T11:38:20;4.30;;;2.10;;
11535;SDS011;5824;49.336;8.652;2023-07-30T11:40:47;3.70;;;1.90;;
11535;SDS011;5824;49.336;8.652;2023-07-30T11:43:13;3.87;;;2.10;;
11535;SDS011;5824;49.336;8.652;2023-07-30T11:45:39;4.67;;;2.20;;
11535;SDS011;5824;49.336;8.652;2023-07-30T11:48:08;4.30;;;2.00;;
11535;SDS011;5824;49.336;8.652;2023-07-30T11:50:47;3.50;;;2.23;;
11535;SDS011;5824;49.336;8.652;2023-07-30T11:53:14;4.53;;;2.00;;
11535;SDS011;5824;49.336;8.652;2023-07-30T11:55:41;4.33;;;2.00;;
11535;SDS011;5824;49.336;8.652;2023-07-30T11:58:08;4.90;;;1.90;;
11535;SDS011;5824;49.336;8.652;2023-07-30T12:00:35;4.80;;;2.00;;
11535;SDS011;5824;49.336;8.652;2023-07-30T12:03:06;4.23;;;2.40;;
11535;SDS011;5824;49.336;8.652;2023-07-30T12:05:38;3.90;;;2.13;;
11535;SDS011;5824;49.336;8.652;2023-07-30T12:08:05;7.23;;;1.90;;
11535;SDS011;5824;49.336;8.652;2023-07-30T12:10:41;6.97;;;2.23;;
11535;SDS011;5824;49.336;8.652;2023-07-30T12:13:12;3.70;;;1.80;;
11535;SDS011;5824;49.336;8.652;2023-07-30T12:16:03;5.00;;;2.30;;
11535;SDS011;5824;49.336;8.652;2023-07-30T12:18:28;4.40;;;2.27;;
11535;SDS011;5824;49.336;8.652;2023-07-30T12:20:54;6.00;;;2.33;;
11535;SDS011;5824;49.336;8.652;2023-07-30T12:23:20;11.63;;;2.53;;
11535;SDS011;5824;49.336;8.652;2023-07-30T12:25:46;4.90;;;2.00;;
11535;SDS011;5824;49.336;8.652;2023-07-30T12:28:12;3.90;;;1.92;;
11535;SDS011;5824;49.336;8.652;2023-07-30T12:30:38;4.05;;;1.90;;
11535;SDS011;5824;49.336;8.652;2023-07-30T12:33:04;4.55;;;1.75;;
11535;SDS011;5824;49.336;8.652;2023-07-30T12:35:30;4.13;;;1.70;;
11535;SDS011;5824;49.336;8.652;2023-07-30T12:37:57;3.97;;;1.92;;
11535;SDS011;5824;49.336;8.652;2023-07-30T12:40:22;6.93;;;1.90;;
11535;SDS011;5824;49.336;8.652;2023-07-30T12:42:48;6.97;;;2.15;;
11535;SDS011;5824;49.336;8.652;2023-07-30T12:45:13;4.22;;;2.00;;
11535;SDS011;5824;49.336;8.652;2023-07-30T12:47:39;3.80;;;2.00;;
11535;SDS011;5824;49.336;8.652;2023-07-30T12:50:05;3.42;;;1.77;;
11535;SDS011;5824;49.336;8.652;2023-07-30T12:52:32;4.25;;;2.13;;
11535;SDS011;5824;49.336;8.652;2023-07-30T12:54:58;5.43;;;1.92;;
11535;SDS011;5824;49.336;8.652;2023-07-30T12:57:24;5.47;;;2.30;;
11535;SDS011;5824;49.336;8.652;2023-07-30T12:59:50;3.55;;;1.83;;
11535;SDS011;5824;49.336;8.652;2023-07-30T13:02:15;3.53;;;2.10;;
11535;SDS011;5824;49.336;8.652;2023-07-30T13:04:41;3.65;;;2.00;;
11535;SDS011;5824;49.336;8.652;2023-07-30T13:07:06;4.65;;;2.10;;
11535;SDS011;5824;49.336;8.652;2023-07-30T13:09:32;5.28;;;2.10;;
11535;SDS011;5824;49.336;8.652;2023-07-30T13:11:58;4.63;;;2.00;;
11535;SDS011;5824;49.336;8.652;2023-07-30T13:14:23;4.35;;;2.15;;
11535;SDS011;5824;49.336;8.652;2023-07-30T13:16:49;6.82;;;2.10;;
11535;SDS011;5824;49.336;8.652;2023-07-30T13:19:14;8.10;;;2.00;;
11535;SDS011;5824;49.336;8.652;2023-07-30T13:21:40;4.07;;;1.93;;
11535;SDS011;5824;49.336;8.652;2023-07-30T13:24:05;4.13;;;2.00;;
11535;SDS011;5824;49.336;8.652;2023-07-30T13:26:31;5.80;;;2.30;;
11535;SDS011;5824;49.336;8.652;2023-07-30T13:28:56;4.23;;;2.33;;
11535;SDS011;5824;49.336;8.652;2023-07-30T13:31:22;4.80;;;2.23;;
11535;SDS011;5824;49.336;8.652;2023-07-30T13:33:47;6.67;;;2.50;;
11535;SDS011;5824;49.336;8.652;2023-07-30T13:36:13;4.03;;;2.40;;
11535;SDS011;5824;49.336;8.652;2023-07-30T13:38:39;4.93;;;2.38;;
11535;SDS011;5824;49.336;8.652;2023-07-30T13:41:05;4.33;;;2.40;;
11535;SDS011;5824;49.336;8.652;2023-07-30T13:43:31;6.33;;;2.20;;
11535;SDS011;5824;49.336;8.652;2023-07-30T13:45:57;6.03;;;2.00;;
11535;SDS011;5824;49.336;8.652;2023-07-30T13:48:24;4.40;;;2.50;;
11535;SDS011;5824;49.336;8.652;2023-07-30T13:50:50;4.10;;;2.37;;
11535;SDS011;5824;49.336;8.652;2023-07-30T13:53:15;10.37;;;2.70;;
11535;SDS011;5824;49.336;8.652;2023-07-30T13:55:41;4.23;;;2.07;;
11535;SDS011;5824;49.336;8.652;2023-07-30T13:58:06;5.33;;;2.03;;
11535;SDS011;5824;49.336;8.652;2023-07-30T14:00:33;4.43;;;1.90;;
11535;SDS011;5824;49.336;8.652;2023-07-30T14:02:58;4.00;;;2.10;;
11535;SDS011;5824;49.336;8.652;2023-07-30T14:05:24;4.63;;;2.40;;
11535;SDS011;5824;49.336;8.652;2023-07-30T14:07:49;4.10;;;2.13;;
11535;SDS011;5824;49.336;8.652;2023-07-30T14:10:18;8.27;;;2.40;;
11535;SDS011;5824;49.336;8.652;2023-07-30T14:12:44;5.27;;;2.27;;
11535;SDS011;5824;49.336;8.652;2023-07-30T14:15:10;4.40;;;2.20;;
11535;SDS011;5824;49.336;8.652;2023-07-30T14:17:35;6.07;;;2.60;;
11535;SDS011;5824;49.336;8.652;2023-07-30T14:20:01;6.00;;;2.50;;
11535;SDS011;5824;49.336;8.652;2023-07-30T14:22:26;5.37;;;2.60;;
11535;SDS011;5824;49.336;8.652;2023-07-30T14:24:52;5.03;;;2.10;;
11535;SDS011;5824;49.336;8.652;2023-07-30T14:27:18;6.17;;;2.57;;
11535;SDS011;5824;49.336;8.652;2023-07-30T14:29:44;4.73;;;2.17;;
11535;SDS011;5824;49.336;8.652;2023-07-30T14:32:09;5.27;;;2.47;;
11535;SDS011;5824;49.336;8.652;2023-07-30T14:34:35;5.13;;;2.08;;
11535;SDS011;5824;49.336;8.652;2023-07-30T14:37:00;5.97;;;2.10;;
11535;SDS011;5824;49.336;8.652;2023-07-30T14:39:26;7.00;;;2.30;;
11535;SDS011;5824;49.336;8.652;2023-07-30T14:41:51;5.20;;;2.30;;
11535;SDS011;5824;49.336;8.652;2023-07-30T14:44:17;5.73;;;2.57;;
11535;SDS011;5824;49.336;8.652;2023-07-30T14:46:42;6.03;;;2.20;;
11535;SDS011;5824;49.336;8.652;2023-07-30T14:49:09;6.10;;;2.37;;
11535;SDS011;5824;49.336;8.652;2023-07-30T14:51:35;5.07;;;2.10;;
11535;SDS011;5824;49.336;8.652;2023-07-30T14:54:00;5.13;;;2.23;;
11535;SDS011;5824;49.336;8.652;2023-07-30T14:56:26;8.40;;;2.10;;
11535;SDS011;5824;49.336;8.652;2023-07-30T14:58:51;6.20;;;2.60;;
11535;SDS011;5824;49.336;8.652;2023-07-30T15:01:17;7.57;;;2.50;;